Time;durP1;ratioP1;P1;durP2;ratioP2;P2;SDS_P1;SDS_P2;PMS_P1;PMS_P2;Temp;Humidity;BMP_temperature;BMP_pressure;BME280_temperature;BME280_humidity;BME280_pressure;Samples;Min_cycle;Max_cycle;Signal;HPM_P1;HPM_P2
2024/04/01 00:00:11;;;;;;;7.60;2.75;;;;;;;10.53;82.87;98242.16;2539481;28;20013;-76
2024/04/01 00:01:24;;;;;;;9.23;2.97;;;;;;;10.53;82.92;98236.13;2540191;28;20033;-76
2024/04/01 00:02:37;;;;;;;6.22;3.47;;;;;;;10.53;82.88;98230.91;2538460;28;20056;-74
2024/04/01 00:03:50;;;;;;;4.75;2.47;;;;;;;10.52;83.36;98229.22;2522308;28;20029;-76
2024/04/01 00:05:04;;;;;;;6.72;3.58;;;;;;;10.51;83.12;98220.56;2533216;28;20029;-74
2024/04/01 00:06:17;;;;;;;14.80;3.50;;;;;;;10.50;83.16;98216.25;2528729;28;20061;-76
2024/04/01 00:07:31;;;;;;;6.25;4.22;;;;;;;10.50;83.21;98218.00;2533161;28;20029;-76
2024/04/01 00:08:44;;;;;;;5.50;3.83;;;;;;;10.47;83.42;98211.19;2538909;28;20025;-75
2024/04/01 00:09:57;;;;;;;7.78;4.78;;;;;;;10.47;83.36;98203.34;2522060;28;20121;-76
2024/04/01 00:11:10;;;;;;;8.05;3.85;;;;;;;10.46;83.47;98199.91;2526664;28;20049;-76
2024/04/01 00:12:24;;;;;;;4.70;4.25;;;;;;;10.46;83.54;98196.47;2532778;28;20029;-76
2024/04/01 00:13:37;;;;;;;6.22;4.70;;;;;;;10.46;83.71;98210.34;2532071;28;20033;-77
2024/04/01 00:14:50;;;;;;;4.15;3.17;;;;;;;10.47;83.63;98222.44;2536222;28;20077;-76
2024/04/01 00:16:04;;;;;;;5.07;2.70;;;;;;;10.46;83.91;98218.16;2535339;28;20024;-76
2024/04/01 00:17:19;;;;;;;4.22;2.10;;;;;;;10.46;83.92;98222.53;2541969;28;20111;-76
2024/04/01 00:18:33;;;;;;;4.43;3.53;;;;;;;10.45;83.88;98226.03;2531144;28;20045;-75
2024/04/01 00:19:46;;;;;;;4.65;2.97;;;;;;;10.44;83.92;98233.03;2532475;28;20025;-76
2024/04/01 00:20:59;;;;;;;4.90;2.47;;;;;;;10.44;84.22;98233.03;2539462;28;20027;-76
2024/04/01 00:22:12;;;;;;;5.47;2.40;;;;;;;10.45;84.05;98226.03;2531113;28;20029;-75
2024/04/01 00:23:26;;;;;;;6.15;2.45;;;;;;;10.43;84.07;98228.75;2536770;28;20060;-76
2024/04/01 00:24:39;;;;;;;5.05;2.28;;;;;;;10.42;84.21;98229.63;2542031;28;20362;-77
2024/04/01 00:25:52;;;;;;;7.50;2.80;;;;;;;10.37;84.16;98231.63;2534795;28;20050;-76
2024/04/01 00:27:05;;;;;;;3.90;2.30;;;;;;;10.32;84.13;98230.97;2543019;28;20031;-77
2024/04/01 00:28:19;;;;;;;7.93;2.63;;;;;;;10.30;84.37;98231.97;2543122;28;20486;-76
2024/04/01 00:29:32;;;;;;;8.55;2.20;;;;;;;10.27;84.31;98222.50;2542630;28;20024;-76
2024/04/01 00:30:45;;;;;;;6.60;2.22;;;;;;;10.24;84.42;98225.25;2531279;28;20033;-77
2024/04/01 00:31:58;;;;;;;6.85;3.58;;;;;;;10.24;84.48;98220.03;2529222;28;20017;-75
2024/04/01 00:33:12;;;;;;;4.40;2.55;;;;;;;10.25;84.63;98229.56;2542485;28;20025;-75
2024/04/01 00:34:25;;;;;;;5.18;2.28;;;;;;;10.23;84.60;98232.22;2541496;28;20048;-75
2024/04/01 00:35:39;;;;;;;3.92;2.85;;;;;;;10.21;84.74;98228.00;2542259;28;20044;-77
2024/04/01 00:36:52;;;;;;;10.05;3.20;;;;;;;10.20;84.64;98228.94;2542343;28;20316;-76
2024/04/01 00:38:05;;;;;;;4.35;2.50;;;;;;;10.18;84.87;98217.72;2531573;28;20418;-76
2024/04/01 00:39:19;;;;;;;8.82;3.17;;;;;;;10.17;84.80;98208.19;2533912;28;20084;-76
2024/04/01 00:40:34;;;;;;;4.97;2.53;;;;;;;10.19;84.92;98208.97;2543053;28;20028;-76
2024/04/01 00:41:48;;;;;;;4.57;2.25;;;;;;;10.19;84.98;98201.16;2542481;28;20497;-77
2024/04/01 00:43:08;;;;;;;3.65;2.45;;;;;;;10.18;85.07;98192.50;2531965;28;20064;-75
2024/04/01 00:44:21;;;;;;;7.57;3.30;;;;;;;10.19;85.22;98182.91;2528286;28;20028;-77
2024/04/01 00:45:37;;;;;;;2.50;2.22;;;;;;;10.20;85.24;98168.97;2535603;28;20021;-76
2024/04/01 00:46:51;;;;;;;5.25;2.47;;;;;;;10.23;85.31;98161.00;2542160;28;20118;-77
2024/04/01 00:48:05;;;;;;;3.80;2.72;;;;;;;10.24;85.49;98157.47;2532382;28;20075;-77
2024/04/01 00:49:19;;;;;;;10.27;2.83;;;;;;;10.25;85.51;98157.41;2532214;28;20025;-77
2024/04/01 00:50:33;;;;;;;3.25;2.55;;;;;;;10.28;85.50;98155.63;2528903;28;20052;-76
2024/04/01 00:51:47;;;;;;;5.32;3.55;;;;;;;10.28;85.37;98146.03;2536105;28;20040;-76
2024/04/01 00:53:01;;;;;;;16.38;3.55;;;;;;;10.27;85.38;98146.91;2525990;28;20048;-77
2024/04/01 00:54:15;;;;;;;6.15;3.42;;;;;;;10.26;85.60;98147.81;2520928;28;20104;-77
2024/04/01 00:55:28;;;;;;;6.43;3.53;;;;;;;10.28;85.40;98156.47;2536069;28;20028;-76
2024/04/01 00:56:45;;;;;;;8.50;3.30;;;;;;;10.26;85.50;98161.69;2525759;28;20053;-76
2024/04/01 00:57:59;;;;;;;4.30;2.88;;;;;;;10.23;85.70;98161.00;2536006;28;20029;-77
2024/04/01 00:59:16;;;;;;;3.85;2.33;;;;;;;10.19;85.37;98152.47;2535755;28;20029;-77
2024/04/01 01:00:31;;;;;;;6.40;2.70;;;;;;;10.17;85.50;98153.47;2536661;28;20070;-76
2024/04/01 01:01:46;;;;;;;3.65;2.45;;;;;;;10.15;85.50;98147.50;2525770;28;20100;-77
2024/04/01 01:03:00;;;;;;;5.05;2.78;;;;;;;10.12;85.56;98138.06;2526339;28;20113;-76
2024/04/01 01:04:14;;;;;;;6.22;2.60;;;;;;;10.10;85.32;98131.22;2534869;28;20032;-77
2024/04/01 01:05:27;;;;;;;7.30;2.88;;;;;;;10.08;85.71;98120.88;2542879;28;20029;-78
2024/04/01 01:06:42;;;;;;;11.18;3.22;;;;;;;10.09;85.78;98116.50;2542922;28;20501;-78
2024/04/01 01:07:55;;;;;;;4.75;3.13;;;;;;;10.08;85.72;98115.66;2536775;28;20526;-77
2024/04/01 01:09:11;;;;;;;7.50;3.38;;;;;;;10.08;85.71;98110.44;2543316;28;20096;-77
2024/04/01 01:10:24;;;;;;;6.35;2.60;;;;;;;10.09;85.89;98112.13;2532561;28;20064;-77
2024/04/01 01:11:41;;;;;;;5.45;3.13;;;;;;;10.10;85.88;98107.78;2529867;28;20013;-77
2024/04/01 01:12:54;;;;;;;3.58;2.90;;;;;;;10.11;85.83;98104.25;2532449;28;20524;-76
2024/04/01 01:14:08;;;;;;;5.45;2.80;;;;;;;10.14;85.97;98101.50;2532934;28;20116;-76
2024/04/01 01:15:21;;;;;;;9.38;3.58;;;;;;;10.14;86.14;98101.50;2543729;28;20039;-76
2024/04/01 01:16:36;;;;;;;5.78;2.60;;;;;;;10.15;86.00;98098.81;2535632;28;20103;-76
2024/04/01 01:17:50;;;;;;;8.13;2.72;;;;;;;10.14;85.80;98104.09;2541851;28;20079;-76
2024/04/01 01:19:04;;;;;;;8.63;2.70;;;;;;;10.14;86.16;98088.44;2542466;28;20146;-78
2024/04/01 01:20:17;;;;;;;5.30;2.80;;;;;;;10.13;86.24;98087.63;2535838;28;20024;-77
2024/04/01 01:21:31;;;;;;;4.38;2.88;;;;;;;10.14;86.42;98080.63;2526396;28;20497;-77
2024/04/01 01:22:44;;;;;;;5.53;3.15;;;;;;;10.14;86.11;98081.47;2528892;28;20109;-77
2024/04/01 01:23:57;;;;;;;6.50;2.63;;;;;;;10.14;86.48;98075.41;2539444;28;20531;-78
2024/04/01 01:25:11;;;;;;;6.22;2.72;;;;;;;10.13;86.20;98071.97;2541983;28;20055;-76
2024/04/01 01:26:25;;;;;;;4.28;2.65;;;;;;;10.11;86.32;98058.16;2534751;28;20106;-75
2024/04/01 01:27:41;;;;;;;9.15;3.15;;;;;;;10.09;86.12;98043.53;2542081;28;20043;-75
2024/04/01 01:28:56;;;;;;;7.07;3.10;;;;;;;10.07;86.22;98034.94;2541516;28;20425;-76
2024/04/01 01:30:16;;;;;;;8.80;2.80;;;;;;;10.04;86.06;98033.31;2541612;28;20470;-75
2024/04/01 01:31:30;;;;;;;11.88;3.78;;;;;;;10.02;86.20;98032.56;2531876;28;20159;-76
2024/04/01 01:32:54;;;;;;;7.68;2.35;;;;;;;10.03;86.25;98042.06;2536394;28;20428;-76
2024/04/01 01:34:07;;;;;;;10.15;3.42;;;;;;;10.02;86.36;98056.88;2541262;28;20063;-77
2024/04/01 01:35:25;;;;;;;5.43;2.53;;;;;;;10.00;86.12;98061.28;2534035;28;20018;-77
2024/04/01 01:36:38;;;;;;;8.02;3.72;;;;;;;9.99;86.44;98067.44;2536610;28;20604;-76
2024/04/01 01:37:53;;;;;;;2.35;1.92;;;;;;;9.95;86.22;98058.06;2543067;28;20050;-78
2024/04/01 01:39:06;;;;;;;7.40;2.67;;;;;;;9.92;86.06;98066.03;2542648;28;20292;-77
2024/04/01 01:40:20;;;;;;;10.13;3.88;;;;;;;9.90;86.06;98054.84;2541939;28;20150;-77
2024/04/01 01:41:33;;;;;;;7.80;2.88;;;;;;;9.90;86.21;98056.59;2532393;28;20088;-77
2024/04/01 01:42:47;;;;;;;4.90;2.85;;;;;;;9.91;86.38;98045.25;2522172;23;20050;-76
2024/04/01 01:44:00;;;;;;;6.35;2.67;;;;;;;9.92;86.75;98039.16;2481987;29;20031;-76
2024/04/01 01:45:13;;;;;;;5.55;2.58;;;;;;;9.93;86.38;98044.25;2473385;29;20143;-76
2024/04/01 01:46:26;;;;;;;4.93;2.28;;;;;;;9.93;86.45;98039.06;2484978;28;20090;-78
2024/04/01 01:47:40;;;;;;;5.82;3.08;;;;;;;9.94;86.29;98039.88;2488907;29;20097;-77
2024/04/01 01:48:53;;;;;;;5.35;2.40;;;;;;;9.92;86.43;98049.56;2481717;29;20722;-76
2024/04/01 01:50:07;;;;;;;3.65;2.47;;;;;;;9.90;86.37;98054.84;2482410;28;20058;-77
2024/04/01 01:51:21;;;;;;;4.40;2.15;;;;;;;9.89;86.38;98060.97;2482502;29;20019;-77
2024/04/01 01:52:34;;;;;;;4.72;2.50;;;;;;;9.89;86.44;98079.22;2473577;29;20028;-77
2024/04/01 01:53:47;;;;;;;4.78;3.08;;;;;;;9.86;86.30;98089.78;2475231;29;20027;-77
2024/04/01 01:55:01;;;;;;;6.75;2.33;;;;;;;9.81;86.33;98095.19;2479271;28;20074;-77
2024/04/01 01:56:15;;;;;;;3.60;2.55;;;;;;;9.74;86.20;98095.56;2516362;28;20030;-76
2024/04/01 01:57:29;;;;;;;9.52;3.72;;;;;;;9.71;86.13;98087.88;2523069;28;20113;-77
2024/04/01 01:58:42;;;;;;;3.95;2.17;;;;;;;9.66;86.09;98087.25;2494721;28;20561;-77
2024/04/01 01:59:55;;;;;;;5.30;3.08;;;;;;;9.64;86.37;98084.69;2473901;29;20024;-77
2024/04/01 02:01:09;;;;;;;3.70;2.70;;;;;;;9.64;86.28;98084.69;2473506;29;20103;-78
2024/04/01 02:02:22;;;;;;;3.83;2.60;;;;;;;9.63;86.30;98082.16;2472641;28;20064;-77
2024/04/01 02:03:35;;;;;;;6.40;2.33;;;;;;;9.63;86.41;98079.56;2513258;28;20025;-78
2024/04/01 02:04:48;;;;;;;5.88;2.97;;;;;;;9.63;86.42;98071.75;2498819;28;20027;-77
2024/04/01 02:06:02;;;;;;;4.38;2.30;;;;;;;9.64;86.58;98070.84;2476581;28;20039;-77
2024/04/01 02:07:15;;;;;;;10.57;3.88;;;;;;;9.63;86.37;98067.41;2484224;28;20043;-77
2024/04/01 02:08:28;;;;;;;6.78;3.28;;;;;;;9.63;86.38;98063.94;2505948;28;20031;-79
2024/04/01 02:09:41;;;;;;;8.95;2.75;;;;;;;9.64;86.81;98055.22;2474754;29;20128;-77
2024/04/01 02:10:56;;;;;;;9.50;2.65;;;;;;;9.65;86.18;98062.94;2474863;29;20095;-78
2024/04/01 02:12:09;;;;;;;3.80;2.15;;;;;;;9.66;86.59;98056.00;2518166;28;20029;-79
2024/04/01 02:13:22;;;;;;;5.25;2.55;;;;;;;9.67;86.44;98057.69;2491227;28;20139;-80
2024/04/01 02:14:39;;;;;;;5.05;2.50;;;;;;;9.68;86.62;98057.63;2510137;28;20396;-80
2024/04/01 02:16:06;;;;;;;7.15;2.83;;;;;;;9.69;86.78;98054.09;2478631;29;20020;-79
2024/04/01 02:17:19;;;;;;;4.38;2.65;;;;;;;9.69;86.52;98041.06;2486815;28;20480;-80
2024/04/01 02:18:33;;;;;;;7.75;4.03;;;;;;;9.70;86.53;98023.66;2480954;29;20063;-78
2024/04/01 02:19:46;;;;;;;3.50;2.80;;;;;;;9.67;86.58;98005.59;2473007;29;20024;-80
2024/04/01 02:21:00;;;;;;;2.42;2.15;;;;;;;9.65;86.48;97984.81;2521104;28;20030;-78
2024/04/01 02:22:14;;;;;;;7.25;3.30;;;;;;;9.63;86.46;97981.47;2507590;28;20343;-79
2024/04/01 02:23:33;;;;;;;4.57;3.15;;;;;;;9.63;86.63;97973.66;2476943;28;20096;-79
2024/04/01 02:24:46;;;;;;;6.72;3.25;;;;;;;9.63;86.79;97988.41;2503984;28;20048;-78
2024/04/01 02:26:04;;;;;;;5.30;2.33;;;;;;;9.62;86.64;98011.00;2497252;28;20070;-80
2024/04/01 02:27:17;;;;;;;3.38;2.80;;;;;;;9.59;86.55;98035.44;2506549;28;20031;-79
2024/04/01 02:28:31;;;;;;;3.70;2.60;;;;;;;9.58;86.75;98035.53;2478210;28;20027;-79
2024/04/01 02:29:44;;;;;;;4.75;2.42;;;;;;;9.57;86.31;98032.06;2487699;29;20030;-79
2024/04/01 02:30:58;;;;;;;5.32;2.90;;;;;;;9.56;86.78;98035.59;2516263;28;20022;-78
2024/04/01 02:32:12;;;;;;;7.25;2.63;;;;;;;9.55;86.57;98049.53;2524399;28;20054;-79
2024/04/01 02:33:26;;;;;;;7.72;3.55;;;;;;;9.56;86.59;98061.63;2486907;28;20019;-79
2024/04/01 02:34:39;;;;;;;4.18;2.80;;;;;;;9.55;86.62;98057.34;2504614;28;20099;-78
2024/04/01 02:35:53;;;;;;;5.90;3.22;;;;;;;9.56;86.49;98056.41;2473189;29;20043;-79
2024/04/01 02:37:06;;;;;;;11.10;3.20;;;;;;;9.59;86.62;98065.84;2510487;28;20029;-79
2024/04/01 02:38:20;;;;;;;7.88;3.13;;;;;;;9.57;86.68;98063.28;2498053;28;20028;-79
2024/04/01 02:39:34;;;;;;;7.65;2.88;;;;;;;9.56;86.69;98072.03;2476618;28;20121;-79
2024/04/01 02:40:47;;;;;;;8.93;3.10;;;;;;;9.52;86.64;98065.25;2483614;29;20031;-79
2024/04/01 02:42:00;;;;;;;3.13;2.83;;;;;;;9.51;86.69;98057.53;2509232;28;20065;-78
2024/04/01 02:43:14;;;;;;;6.05;2.90;;;;;;;9.50;86.40;98046.28;2522568;28;20040;-79
2024/04/01 02:44:27;;;;;;;7.50;2.63;;;;;;;9.48;86.79;98034.25;2484710;29;20028;-78
2024/04/01 02:45:40;;;;;;;6.53;3.80;;;;;;;9.48;86.73;98026.44;2473266;28;20071;-78
2024/04/01 02:46:53;;;;;;;4.75;2.80;;;;;;;9.49;86.72;98041.13;2467563;28;20058;-79
2024/04/01 02:48:07;;;;;;;13.27;4.80;;;;;;;9.51;86.96;98041.91;2478857;28;20091;-78
2024/04/01 02:49:20;;;;;;;4.78;2.70;;;;;;;9.48;86.83;98037.69;2521774;28;20029;-78
2024/04/01 02:50:34;;;;;;;6.93;2.40;;;;;;;9.49;86.90;98018.53;2490013;29;20036;-78
2024/04/01 02:51:47;;;;;;;6.85;3.15;;;;;;;9.51;86.60;98026.31;2512824;28;20026;-78
2024/04/01 02:53:01;;;;;;;4.55;3.58;;;;;;;9.52;86.95;98033.19;2507546;28;20038;-79
2024/04/01 02:54:14;;;;;;;7.13;2.80;;;;;;;9.52;86.87;98031.41;2474338;28;20048;-79
2024/04/01 02:55:27;;;;;;;11.18;3.25;;;;;;;9.50;87.01;98041.09;2467616;28;20032;-79
2024/04/01 02:56:40;;;;;;;8.15;2.92;;;;;;;9.49;87.01;98044.59;2489189;28;20025;-78
2024/04/01 02:57:54;;;;;;;9.05;3.03;;;;;;;9.49;87.10;98047.19;2509672;28;20038;-79
2024/04/01 02:59:09;;;;;;;3.92;2.45;;;;;;;9.50;87.05;98038.47;2513442;28;20025;-78
2024/04/01 03:00:22;;;;;;;7.38;3.35;;;;;;;9.52;86.95;98047.03;2519666;28;20022;-79
2024/04/01 03:01:41;;;;;;;10.57;3.85;;;;;;;9.55;87.06;98039.13;2479741;29;20019;-79
2024/04/01 03:02:54;;;;;;;9.50;3.22;;;;;;;9.59;87.17;98038.03;2488437;28;20819;-80
2024/04/01 03:04:08;;;;;;;11.40;3.00;;;;;;;9.62;87.17;98034.44;2503724;28;20046;-78
2024/04/01 03:05:21;;;;;;;3.28;2.95;;;;;;;9.64;87.19;98030.03;2486810;28;20031;-79
2024/04/01 03:06:36;;;;;;;9.30;3.30;;;;;;;9.64;87.06;98021.38;2522778;28;20038;-78
2024/04/01 03:07:50;;;;;;;10.32;3.63;;;;;;;9.64;86.92;98032.63;2523510;28;20363;-78
2024/04/01 03:09:04;;;;;;;6.50;2.53;;;;;;;9.65;86.97;98041.28;2487875;28;20234;-78
2024/04/01 03:10:17;;;;;;;6.47;2.60;;;;;;;9.66;86.96;98035.16;2477952;28;20039;-78
2024/04/01 03:11:31;;;;;;;5.35;2.60;;;;;;;9.66;86.95;98040.38;2474647;28;20469;-78
2024/04/01 03:12:45;;;;;;;5.85;3.55;;;;;;;9.65;86.92;98036.06;2478846;28;20054;-77
2024/04/01 03:13:58;;;;;;;5.32;3.60;;;;;;;9.65;86.98;98036.06;2484125;29;20059;-78
2024/04/01 03:15:16;;;;;;;4.03;3.03;;;;;;;9.65;86.87;98023.03;2479580;29;20497;-78
2024/04/01 03:16:29;;;;;;;4.53;3.30;;;;;;;9.66;86.73;98019.53;2478208;29;20020;-78
2024/04/01 03:17:43;;;;;;;6.90;3.28;;;;;;;9.66;86.87;98019.53;2501333;28;20018;-79
2024/04/01 03:18:57;;;;;;;10.70;3.85;;;;;;;9.67;86.77;98018.63;2492403;28;20547;-78
2024/04/01 03:20:11;;;;;;;4.20;3.40;;;;;;;9.66;86.81;98015.16;2469418;29;20021;-79
2024/04/01 03:21:25;;;;;;;7.18;3.47;;;;;;;9.66;87.01;98025.59;2494251;28;20031;-79
2024/04/01 03:22:39;;;;;;;5.25;3.70;;;;;;;9.67;86.90;98021.22;2511516;28;20073;-77
2024/04/01 03:23:52;;;;;;;6.32;2.58;;;;;;;9.68;86.93;98017.69;2505481;28;20048;-79
2024/04/01 03:25:06;;;;;;;4.40;3.10;;;;;;;9.70;86.93;98031.47;2525365;28;20033;-78
2024/04/01 03:26:19;;;;;;;11.75;4.53;;;;;;;9.70;86.85;98032.31;2497554;28;20046;-79
2024/04/01 03:27:33;;;;;;;10.73;3.25;;;;;;;9.71;86.71;98035.81;2500714;28;20035;-77
2024/04/01 03:28:46;;;;;;;13.80;5.03;;;;;;;9.71;86.87;98048.81;2498028;28;20031;-77
2024/04/01 03:29:59;;;;;;;5.57;3.80;;;;;;;9.72;86.89;98051.34;2501866;28;20433;-77
2024/04/01 03:31:12;;;;;;;3.22;2.92;;;;;;;9.73;86.81;98057.38;2493017;28;20362;-78
2024/04/01 03:32:26;;;;;;;5.30;2.75;;;;;;;9.74;86.76;98054.72;2475370;28;20411;-79
2024/04/01 03:33:39;;;;;;;3.97;2.88;;;;;;;9.74;86.70;98065.13;2479613;28;20070;-78
2024/04/01 03:34:53;;;;;;;8.10;3.50;;;;;;;9.73;86.84;98060.84;2479761;29;20024;-79
2024/04/01 03:36:07;;;;;;;5.53;2.78;;;;;;;9.74;86.84;98064.28;2511340;28;20394;-78
2024/04/01 03:37:20;;;;;;;4.35;3.03;;;;;;;9.74;86.68;98078.16;2523639;28;20112;-78
2024/04/01 03:38:33;;;;;;;3.35;2.90;;;;;;;9.75;86.41;98079.84;2493498;28;20047;-79
2024/04/01 03:39:47;;;;;;;4.10;2.28;;;;;;;9.74;86.63;98070.34;2501383;28;20031;-78
2024/04/01 03:41:00;;;;;;;4.10;3.08;;;;;;;9.73;86.69;98075.63;2490770;28;20078;-81
2024/04/01 03:42:14;;;;;;;3.92;2.95;;;;;;;9.74;86.67;98065.13;2509402;28;20042;-78
2024/04/01 03:43:27;;;;;;;3.53;2.85;;;;;;;9.73;86.69;98079.09;2480724;28;20036;-79
2024/04/01 03:44:41;;;;;;;5.47;3.20;;;;;;;9.73;86.59;98073.00;2484102;28;20423;-78
2024/04/01 03:46:01;;;;;;;5.45;3.25;;;;;;;9.72;86.56;98072.16;2477384;28;20444;-78
2024/04/01 03:47:14;;;;;;;3.50;2.70;;;;;;;9.71;86.47;98067.88;2528775;28;20489;-78
2024/04/01 03:48:28;;;;;;;8.40;2.58;;;;;;;9.70;86.59;98063.56;2517802;28;20030;-78
2024/04/01 03:49:41;;;;;;;3.83;2.88;;;;;;;9.69;86.63;98069.72;2499852;28;20413;-78
2024/04/01 03:50:54;;;;;;;13.65;3.20;;;;;;;9.68;86.64;98068.03;2479260;28;20038;-77
2024/04/01 03:52:08;;;;;;;9.35;2.72;;;;;;;9.68;86.67;98062.81;2511715;28;20030;-78
2024/04/01 03:53:21;;;;;;;4.38;2.65;;;;;;;9.68;86.54;98059.34;2487542;28;20082;-78
2024/04/01 03:54:34;;;;;;;4.22;2.40;;;;;;;9.67;86.71;98061.13;2474524;28;20036;-77
2024/04/01 03:55:48;;;;;;;2.85;2.45;;;;;;;9.68;86.43;98057.63;2471436;29;20039;-78
2024/04/01 03:57:01;;;;;;;7.50;2.42;;;;;;;9.69;86.72;98066.28;2477680;28;20038;-78
2024/04/01 03:58:15;;;;;;;2.95;2.42;;;;;;;9.68;86.55;98068.03;2477190;28;20074;-78
2024/04/01 03:59:29;;;;;;;4.75;3.30;;;;;;;9.68;86.58;98064.56;2475568;29;20082;-78
2024/04/01 04:00:43;;;;;;;4.10;2.50;;;;;;;9.68;86.43;98067.16;2483818;28;20480;-78
2024/04/01 04:01:57;;;;;;;7.00;2.55;;;;;;;9.67;86.43;98052.47;2474542;28;20043;-77
2024/04/01 04:03:10;;;;;;;4.47;2.97;;;;;;;9.66;86.58;98049.03;2514134;28;20112;-78
2024/04/01 04:04:23;;;;;;;3.50;2.47;;;;;;;9.67;86.25;98047.25;2521081;28;20533;-79
2024/04/01 04:05:37;;;;;;;4.82;2.90;;;;;;;9.65;86.33;98044.72;2495174;28;20030;-78
2024/04/01 04:06:50;;;;;;;5.03;2.80;;;;;;;9.66;86.44;98050.78;2508104;28;20020;-78
2024/04/01 04:08:03;;;;;;;4.78;3.30;;;;;;;9.65;86.45;98049.91;2478353;29;20107;-78
2024/04/01 04:09:17;;;;;;;5.88;2.75;;;;;;;9.65;86.34;98047.31;2473347;28;20447;-78
2024/04/01 04:10:31;;;;;;;3.00;2.25;;;;;;;9.65;86.40;98043.88;2507729;28;20091;-78
2024/04/01 04:11:49;;;;;;;7.95;3.60;;;;;;;9.65;86.49;98046.47;2483180;29;20027;-78
2024/04/01 04:13:02;;;;;;;4.47;2.50;;;;;;;9.64;86.24;98050.84;2473206;29;20024;-78
2024/04/01 04:14:19;;;;;;;2.58;2.05;;;;;;;9.64;86.31;98063.03;2473673;28;20409;-78
2024/04/01 04:15:33;;;;;;;4.72;2.78;;;;;;;9.61;86.34;98058.81;2493287;28;20024;-78
2024/04/01 04:16:46;;;;;;;3.47;3.15;;;;;;;9.59;86.34;98058.88;2514398;28;20106;-78
2024/04/01 04:18:00;;;;;;;7.38;3.00;;;;;;;9.57;86.28;98065.91;2473095;28;20092;-78
2024/04/01 04:19:14;;;;;;;7.60;2.67;;;;;;;9.55;86.15;98072.09;2465967;29;20082;-78
2024/04/01 04:20:27;;;;;;;5.97;4.38;;;;;;;9.53;86.27;98074.78;2481202;28;20058;-78
2024/04/01 04:21:41;;;;;;;7.78;4.45;;;;;;;9.53;86.39;98079.16;2475505;29;20020;-78
2024/04/01 04:22:55;;;;;;;8.25;5.40;;;;;;;9.52;86.37;98080.88;2481546;29;20032;-78
2024/04/01 04:24:10;;;;;;;11.57;4.75;;;;;;;9.53;86.55;98089.56;2473342;29;20031;-78
2024/04/01 04:25:23;;;;;;;6.40;3.65;;;;;;;9.54;86.52;98089.47;2467428;28;20531;-78
2024/04/01 04:26:37;;;;;;;4.78;3.85;;;;;;;9.56;86.74;98094.63;2469625;28;20032;-78
2024/04/01 04:27:50;;;;;;;5.28;3.10;;;;;;;9.58;86.52;98100.63;2476184;29;20024;-77
2024/04/01 04:29:03;;;;;;;5.35;3.10;;;;;;;9.58;86.47;98106.66;2477487;28;20432;-77
2024/04/01 04:30:17;;;;;;;6.57;3.55;;;;;;;9.60;86.56;98106.56;2472706;28;20501;-78
2024/04/01 04:31:31;;;;;;;3.50;2.80;;;;;;;9.61;86.56;98106.53;2477362;29;20078;-78
2024/04/01 04:32:44;;;;;;;3.55;3.25;;;;;;;9.63;86.46;98116.00;2497731;28;20028;-78
2024/04/01 04:33:58;;;;;;;4.43;3.45;;;;;;;9.64;86.68;98118.56;2497086;28;20131;-78
2024/04/01 04:35:13;;;;;;;5.25;2.70;;;;;;;9.62;86.43;98112.56;2509845;28;20113;-78
2024/04/01 04:36:26;;;;;;;6.28;3.47;;;;;;;9.64;86.37;98117.72;2520308;28;20026;-78
2024/04/01 04:37:40;;;;;;;7.97;3.85;;;;;;;9.63;86.77;98118.63;2482630;28;20106;-78
2024/04/01 04:38:53;;;;;;;4.75;4.03;;;;;;;9.63;86.48;98129.03;2478805;29;20031;-77
2024/04/01 04:40:10;;;;;;;3.63;3.15;;;;;;;9.61;86.49;98135.16;2472283;29;20373;-78
2024/04/01 04:41:23;;;;;;;3.97;3.35;;;;;;;9.62;86.67;98146.41;2478791;28;20024;-78
2024/04/01 04:42:36;;;;;;;4.07;2.60;;;;;;;9.61;86.74;98152.56;2515620;28;20086;-79
2024/04/01 04:43:50;;;;;;;2.45;2.25;;;;;;;9.60;86.57;98161.25;2465708;29;20062;-78
2024/04/01 04:45:04;;;;;;;2.80;2.50;;;;;;;9.60;86.70;98174.28;2470146;29;20051;-78
2024/04/01 04:46:17;;;;;;;3.80;2.25;;;;;;;9.60;86.54;98182.97;2468837;29;20036;-77
2024/04/01 04:47:30;;;;;;;3.65;2.80;;;;;;;9.60;86.47;98179.50;2511789;28;20072;-78
2024/04/01 04:48:44;;;;;;;6.25;2.60;;;;;;;9.58;86.33;98170.94;2497859;28;20032;-79
2024/04/01 04:49:57;;;;;;;4.82;3.40;;;;;;;9.57;86.31;98161.41;2505544;28;20032;-78
2024/04/01 04:51:11;;;;;;;8.82;4.45;;;;;;;9.57;86.37;98164.84;2514964;28;20042;-78
2024/04/01 04:52:24;;;;;;;2.97;2.72;;;;;;;9.57;86.28;98177.03;2490245;28;20710;-78
2024/04/01 04:53:38;;;;;;;5.03;2.38;;;;;;;9.56;86.41;98173.59;2481922;28;20051;-78
2024/04/01 04:54:51;;;;;;;5.43;2.53;;;;;;;9.55;86.48;98168.44;2493182;28;20028;-78
2024/04/01 04:56:05;;;;;;;5.50;2.65;;;;;;;9.54;86.51;98172.81;2506084;28;20025;-78
2024/04/01 04:57:18;;;;;;;5.13;2.53;;;;;;;9.56;86.31;98175.34;2491493;28;21326;-79
2024/04/01 04:58:32;;;;;;;3.72;2.45;;;;;;;9.57;86.41;98174.41;2474842;28;20040;-77
2024/04/01 04:59:48;;;;;;;3.72;2.25;;;;;;;9.56;86.53;98168.38;2496415;28;20037;-76
2024/04/01 05:01:05;;;;;;;3.20;2.33;;;;;;;9.59;86.46;98165.63;2525718;28;20104;-77
2024/04/01 05:02:18;;;;;;;2.85;2.10;;;;;;;9.59;86.38;98176.03;2493253;28;20040;-77
2024/04/01 05:03:34;;;;;;;7.00;2.35;;;;;;;9.59;86.28;98183.03;2476252;28;20115;-79
2024/04/01 05:04:47;;;;;;;2.05;1.85;;;;;;;9.57;86.24;98182.22;2494375;28;20153;-78
2024/04/01 05:06:01;;;;;;;5.07;2.53;;;;;;;9.54;86.16;98185.81;2502388;28;20089;-79
2024/04/01 05:07:14;;;;;;;3.45;2.38;;;;;;;9.53;86.28;98188.50;2485738;28;20043;-78
2024/04/01 05:08:28;;;;;;;10.02;2.95;;;;;;;9.51;86.25;98193.78;2485889;28;20027;-79
2024/04/01 05:09:41;;;;;;;7.57;4.05;;;;;;;9.52;86.30;98192.00;2495805;28;20581;-78
2024/04/01 05:10:55;;;;;;;3.30;2.72;;;;;;;9.50;86.26;98191.22;2506183;28;20042;-78
2024/04/01 05:12:09;;;;;;;4.45;2.72;;;;;;;9.51;86.24;98187.72;2480110;29;20103;-79
2024/04/01 05:13:22;;;;;;;7.20;2.78;;;;;;;9.52;86.54;98182.44;2477458;28;20028;-78
2024/04/01 05:14:35;;;;;;;10.05;3.05;;;;;;;9.51;86.41;98185.97;2518911;28;20068;-79
2024/04/01 05:15:48;;;;;;;4.97;3.05;;;;;;;9.50;86.54;98188.63;2492645;29;20062;-78
2024/04/01 05:17:02;;;;;;;10.80;3.70;;;;;;;9.50;86.58;98186.00;2503551;28;20026;-79
2024/04/01 05:18:15;;;;;;;6.80;3.63;;;;;;;9.48;86.51;98190.47;2491736;28;20047;-79
2024/04/01 05:19:28;;;;;;;7.60;3.88;;;;;;;9.47;86.57;98189.59;2490200;29;20020;-79
2024/04/01 05:20:41;;;;;;;8.05;4.55;;;;;;;9.47;86.61;98199.16;2496768;28;20549;-79
2024/04/01 05:21:55;;;;;;;5.65;3.70;;;;;;;9.46;86.41;98208.75;2507187;28;20020;-79
2024/04/01 05:23:09;;;;;;;8.75;4.25;;;;;;;9.43;86.64;98200.22;2479752;28;20043;-79
2024/04/01 05:24:22;;;;;;;7.55;3.78;;;;;;;9.43;86.75;98206.28;2523514;28;20454;-79
2024/04/01 05:25:35;;;;;;;6.18;3.90;;;;;;;9.42;86.61;98198.53;2504894;28;20035;-79
2024/04/01 05:26:48;;;;;;;4.43;3.90;;;;;;;9.41;86.71;98204.66;2518286;28;20045;-79
2024/04/01 05:28:02;;;;;;;8.65;4.03;;;;;;;9.39;86.63;98205.53;2514877;28;20023;-79
2024/04/01 05:29:15;;;;;;;7.53;4.43;;;;;;;9.39;86.88;98202.09;2484903;28;20027;-79
2024/04/01 05:30:28;;;;;;;9.05;4.72;;;;;;;9.39;86.81;98207.31;2475837;28;20044;-79
2024/04/01 05:31:42;;;;;;;11.15;7.13;;;;;;;9.41;87.02;98212.47;2476280;29;20397;-79
2024/04/01 05:32:55;;;;;;;7.30;4.22;;;;;;;9.37;86.90;98215.19;2475223;29;20114;-79
2024/04/01 05:34:09;;;;;;;6.18;4.85;;;;;;;9.37;86.78;98216.94;2468844;28;20042;-79
2024/04/01 05:35:22;;;;;;;10.90;4.68;;;;;;;9.37;87.02;98206.53;2491138;29;20027;-79
2024/04/01 05:36:35;;;;;;;6.82;5.32;;;;;;;9.37;87.21;98217.81;2483718;28;20036;-80
2024/04/01 05:37:49;;;;;;;6.85;4.95;;;;;;;9.40;87.03;98216.84;2499217;28;20083;-79
2024/04/01 05:39:05;;;;;;;9.02;4.93;;;;;;;9.40;87.10;98216.84;2498362;28;20039;-79
2024/04/01 05:40:18;;;;;;;7.20;4.80;;;;;;;9.42;87.12;98224.56;2482559;29;20035;-80
2024/04/01 05:41:32;;;;;;;7.03;4.18;;;;;;;9.43;87.46;98221.06;2478157;28;20034;-79
2024/04/01 05:42:46;;;;;;;6.57;4.10;;;;;;;9.41;87.31;98226.31;2468278;28;20067;-79
2024/04/01 05:43:59;;;;;;;9.02;5.78;;;;;;;9.42;87.26;98224.56;2473841;29;20036;-79
2024/04/01 05:45:12;;;;;;;6.60;4.20;;;;;;;9.43;87.37;98232.31;2506368;28;20037;-79
2024/04/01 05:46:26;;;;;;;14.13;5.43;;;;;;;9.44;87.54;98228.78;2485205;28;20034;-79
2024/04/01 05:47:39;;;;;;;7.80;5.30;;;;;;;9.43;87.42;98221.91;2511699;28;20073;-79
2024/04/01 05:48:52;;;;;;;10.20;4.90;;;;;;;9.43;87.41;98211.47;2506831;28;20038;-79
2024/04/01 05:50:06;;;;;;;5.55;3.58;;;;;;;9.43;87.35;98221.91;2501577;28;20040;-78